Time;durP1;ratioP1;P1;durP2;ratioP2;P2;SDS_P1;SDS_P2;PMS_P1;PMS_P2;Temp;Humidity;BMP_temperature;BMP_pressure;BME280_temperature;BME280_humidity;BME280_pressure;Samples;Min_cycle;Max_cycle;Signal;HPM_P1;HPM_P2
2021/12/07 00:02:21;;;;;;;36.67;20.42;;;;;;;3.04;93.31;99789.44;5091995;28;20099;-69
2021/12/07 00:04:47;;;;;;;37.35;20.65;;;;;;;3.07;93.35;99793.69;5092098;28;20047;-69
2021/12/07 00:07:13;;;;;;;37.03;20.63;;;;;;;3.06;93.47;99800.75;5092204;28;20476;-69
2021/12/07 00:09:39;;;;;;;38.03;21.42;;;;;;;3.08;93.31;99820.06;5091670;28;20295;-69
2021/12/07 00:12:06;;;;;;;39.30;21.35;;;;;;;3.05;93.57;99814.97;5092002;28;20028;-69
2021/12/07 00:14:39;;;;;;;37.15;20.98;;;;;;;3.02;93.65;99812.50;5092147;28;20048;-69
2021/12/07 00:17:06;;;;;;;38.78;21.73;;;;;;;3.04;94.08;99809.75;5073483;28;20024;-69
2021/12/07 00:19:32;;;;;;;41.28;21.92;;;;;;;3.02;94.02;99816.94;5091797;28;20028;-69
2021/12/07 00:21:58;;;;;;;37.75;21.70;;;;;;;3.03;93.43;99808.91;5091808;28;20070;-69
2021/12/07 00:24:23;;;;;;;37.90;21.02;;;;;;;3.01;93.56;99812.63;5092679;28;20330;-69
2021/12/07 00:26:49;;;;;;;39.60;21.38;;;;;;;3.01;94.03;99823.22;5092779;28;20020;-69
2021/12/07 00:29:16;;;;;;;37.33;21.13;;;;;;;3.00;94.03;99825.00;5074588;28;20047;-69
2021/12/07 00:31:51;;;;;;;40.05;22.00;;;;;;;3.01;93.48;99817.91;5074374;28;20477;-69
2021/12/07 00:34:37;;;;;;;39.83;20.60;;;;;;;2.95;93.51;99813.88;5073003;28;20031;-69
2021/12/07 00:37:03;;;;;;;37.15;20.80;;;;;;;2.98;93.90;99811.03;5092909;28;20023;-69
2021/12/07 00:39:29;;;;;;;38.95;21.05;;;;;;;2.97;94.18;99804.00;5092045;28;20024;-69
2021/12/07 00:41:55;;;;;;;35.63;20.80;;;;;;;2.99;94.14;99809.19;5092470;28;20473;-69
2021/12/07 00:44:23;;;;;;;38.17;22.17;;;;;;;3.03;93.42;99805.44;5092691;28;20024;-69
2021/12/07 00:46:49;;;;;;;37.90;20.67;;;;;;;3.03;92.93;99786.88;5092471;28;20047;-69
2021/12/07 00:49:16;;;;;;;37.25;21.25;;;;;;;3.05;92.06;99787.63;5092302;28;20036;-69
2021/12/07 00:51:42;;;;;;;39.72;21.65;;;;;;;3.01;92.25;99789.63;5092345;28;20023;-69
2021/12/07 00:54:09;;;;;;;39.22;21.63;;;;;;;2.97;92.83;99793.41;5092260;28;20028;-69
2021/12/07 00:56:35;;;;;;;39.03;21.05;;;;;;;2.99;92.93;99788.00;5092222;28;20075;-69
2021/12/07 00:59:01;;;;;;;33.47;20.52;;;;;;;3.00;92.85;99795.03;5092374;28;20024;-69
2021/12/07 01:01:27;;;;;;;34.67;19.65;;;;;;;2.98;92.65;99794.28;5092141;28;20031;-69
2021/12/07 01:03:52;;;;;;;38.53;20.92;;;;;;;2.96;92.44;99790.91;5092002;28;20040;-69
2021/12/07 01:06:30;;;;;;;41.28;20.55;;;;;;;2.94;92.16;99785.69;5092143;28;20480;-69
2021/12/07 01:09:15;;;;;;;37.05;20.17;;;;;;;2.96;92.26;99788.25;5091578;28;20032;-69
2021/12/07 01:25:31;;;;;;;36.10;20.90;;;;;;;2.92;91.89;99784.94;5070745;28;20105;-69
2021/12/07 01:28:03;;;;;;;38.47;21.08;;;;;;;2.91;91.48;99787.69;5069911;28;20432;-69
2021/12/07 01:30:39;;;;;;;40.80;22.00;;;;;;;2.93;91.54;99789.28;5070291;28;20028;-69
2021/12/07 01:33:30;;;;;;;41.97;22.13;;;;;;;2.94;91.76;99783.03;5070336;28;20107;-69
2021/12/07 01:51:44;;;;;;;37.45;21.25;;;;;;;2.95;91.52;99794.47;5071109;28;20039;-69
2021/12/07 01:59:43;;;;;;;38.20;20.80;;;;;;;2.90;92.19;99788.63;5070305;28;20388;-69
2021/12/07 02:02:11;;;;;;;40.60;21.10;;;;;;;3.02;90.33;99783.38;5071117;28;20036;-69
2021/12/07 02:04:38;;;;;;;38.03;20.30;;;;;;;2.91;90.92;99771.78;5071203;28;20037;-69
2021/12/07 02:07:05;;;;;;;38.17;21.13;;;;;;;2.84;91.33;99768.69;5071146;28;20036;-69
2021/12/07 02:09:34;;;;;;;40.22;21.15;;;;;;;2.84;91.11;99771.31;5071721;28;20032;-68
2021/12/07 02:12:02;;;;;;;39.88;20.95;;;;;;;2.83;91.51;99764.34;5091150;28;20387;-69
2021/12/07 02:14:29;;;;;;;35.95;20.08;;;;;;;2.82;91.73;99767.09;5091064;28;20517;-69
2021/12/07 02:17:04;;;;;;;35.63;20.23;;;;;;;2.81;91.19;99760.97;5091123;28;20457;-69
2021/12/07 02:19:29;;;;;;;40.45;21.77;;;;;;;2.78;91.96;99755.00;5090920;28;20123;-68
2021/12/07 02:21:57;;;;;;;41.72;21.52;;;;;;;2.80;92.38;99753.94;5091069;28;20032;-69
2021/12/07 02:24:23;;;;;;;41.65;21.45;;;;;;;2.79;92.09;99751.41;5091037;28;20034;-69
2021/12/07 02:26:49;;;;;;;37.85;21.23;;;;;;;2.69;92.51;99742.34;5072650;28;20119;-69
2021/12/07 02:29:16;;;;;;;36.90;20.67;;;;;;;2.76;92.68;99748.94;5072951;28;20123;-69
2021/12/07 02:31:42;;;;;;;36.63;20.58;;;;;;;2.77;93.05;99756.78;5090878;28;20035;-69
2021/12/07 02:34:08;;;;;;;34.28;20.00;;;;;;;2.80;92.47;99753.13;5091018;28;20023;-69
2021/12/07 02:36:34;;;;;;;38.92;21.45;;;;;;;2.78;91.44;99749.72;5088637;28;20028;-69
2021/12/07 02:39:00;;;;;;;39.53;21.73;;;;;;;2.73;91.90;99754.44;5090758;28;20031;-69
2021/12/07 02:41:25;;;;;;;39.53;20.08;;;;;;;2.73;91.66;99749.16;5090968;28;20024;-69
2021/12/07 02:43:51;;;;;;;38.60;21.08;;;;;;;2.73;91.82;99751.78;5090761;28;20027;-69
2021/12/07 02:46:17;;;;;;;36.92;20.48;;;;;;;2.77;91.34;99748.03;5070343;28;20024;-69
2021/12/07 02:48:43;;;;;;;37.33;20.38;;;;;;;2.74;91.71;99748.22;5090879;28;20388;-69
2021/12/07 02:51:09;;;;;;;38.85;21.48;;;;;;;2.78;91.87;99752.34;5090753;28;20067;-69
2021/12/07 02:53:36;;;;;;;42.28;20.90;;;;;;;2.73;91.61;99747.34;5090758;28;20431;-69
2021/12/07 02:56:04;;;;;;;39.42;20.88;;;;;;;2.72;92.26;99752.75;5090756;28;20043;-69
2021/12/07 02:58:30;;;;;;;38.90;20.85;;;;;;;2.69;92.04;99745.88;5072717;28;20036;-69
2021/12/07 03:01:07;;;;;;;38.75;20.33;;;;;;;2.73;91.96;99744.72;5090856;28;20137;-69
2021/12/07 03:03:37;;;;;;;38.75;20.38;;;;;;;2.73;92.30;99744.72;5090195;28;20096;-69
2021/12/07 03:06:16;;;;;;;42.75;21.88;;;;;;;2.69;92.03;99731.78;5091948;28;20075;-69
2021/12/07 03:28:02;;;;;;;39.33;21.20;;;;;;;2.67;91.22;99758.34;5091897;28;20145;-69
2021/12/07 03:30:28;;;;;;;43.45;21.73;;;;;;;2.74;90.43;99761.47;5075736;28;20051;-68
2021/12/07 03:32:53;;;;;;;41.53;22.13;;;;;;;2.66;90.93;99761.09;5094009;28;20038;-68
2021/12/07 03:35:19;;;;;;;39.30;21.73;;;;;;;2.65;91.60;99759.41;5094042;28;20076;-68
2021/12/07 03:37:45;;;;;;;36.97;20.83;;;;;;;2.64;91.69;99757.72;5094209;28;20514;-68
2021/12/07 03:40:12;;;;;;;40.92;22.33;;;;;;;2.62;92.25;99752.50;5096214;28;20032;-69
2021/12/07 03:42:38;;;;;;;33.85;19.55;;;;;;;2.56;92.27;99747.59;5099651;28;20031;-69
2021/12/07 03:45:07;;;;;;;38.10;21.52;;;;;;;2.61;92.38;99763.19;5093479;28;20031;-69
2021/12/07 03:47:32;;;;;;;40.90;21.90;;;;;;;2.62;92.10;99754.28;5075216;28;20032;-69
2021/12/07 03:49:58;;;;;;;40.15;21.48;;;;;;;2.65;91.91;99756.75;5094591;28;20020;-69
2021/12/07 03:52:23;;;;;;;37.95;21.05;;;;;;;2.60;91.98;99758.81;5098700;28;20038;-69
2021/12/07 03:54:49;;;;;;;40.90;21.13;;;;;;;2.60;92.29;99754.41;5095918;28;20024;-69
2021/12/07 03:57:15;;;;;;;37.55;20.90;;;;;;;2.61;92.38;99757.91;5097158;28;20031;-69
2021/12/07 03:59:41;;;;;;;40.75;21.80;;;;;;;2.60;92.42;99764.97;5101239;28;20027;-69
2021/12/07 04:02:07;;;;;;;37.33;21.05;;;;;;;2.56;92.73;99744.97;5097360;28;20460;-69
2021/12/07 04:04:34;;;;;;;36.83;21.15;;;;;;;2.58;92.80;99752.81;5072743;28;20480;-69
2021/12/07 04:07:00;;;;;;;41.78;22.90;;;;;;;2.56;92.53;99742.31;5091477;28;20384;-69
2021/12/07 04:09:25;;;;;;;41.75;21.83;;;;;;;2.59;92.81;99757.13;5088807;28;20032;-67
2021/12/07 04:11:51;;;;;;;37.97;20.17;;;;;;;2.57;92.88;99756.41;5087231;28;20062;-69
2021/12/07 04:14:16;;;;;;;35.45;21.10;;;;;;;2.57;92.56;99751.94;5088395;28;20377;-69
2021/12/07 04:16:42;;;;;;;38.90;21.55;;;;;;;2.54;92.76;99746.84;5090672;28;20035;-69
2021/12/07 04:19:08;;;;;;;39.00;21.77;;;;;;;2.55;92.52;99753.00;5091707;28;20032;-69
2021/12/07 04:21:33;;;;;;;41.45;21.58;;;;;;;2.51;92.62;99740.91;5090655;28;20051;-69
2021/12/07 04:23:59;;;;;;;38.97;20.70;;;;;;;2.59;92.32;99751.84;5091240;28;20040;-69
2021/12/07 04:26:25;;;;;;;37.97;21.35;;;;;;;2.52;92.17;99745.25;5091224;28;20111;-69
2021/12/07 04:28:51;;;;;;;43.35;20.95;;;;;;;2.54;92.45;99757.44;5086408;28;20031;-68
2021/12/07 04:31:17;;;;;;;42.13;22.00;;;;;;;2.55;92.74;99759.16;5089094;28;20389;-68
2021/12/07 04:33:43;;;;;;;37.00;20.60;;;;;;;2.60;92.70;99769.41;5090411;28;20055;-68
2021/12/07 04:36:10;;;;;;;46.25;23.42;;;;;;;2.69;91.09;99763.53;5092850;28;20054;-68
2021/12/07 04:38:37;;;;;;;39.60;21.13;;;;;;;2.67;91.28;99770.75;5092693;28;20372;-69
2021/12/07 04:41:03;;;;;;;44.22;22.40;;;;;;;2.64;90.83;99763.00;5092831;28;20469;-68
2021/12/07 04:43:28;;;;;;;38.40;19.88;;;;;;;2.66;90.42;99764.59;5092504;28;20034;-68
2021/12/07 04:46:07;;;;;;;37.03;21.35;;;;;;;2.55;91.12;99760.94;5092476;28;20073;-68
2021/12/07 04:59:31;;;;;;;37.28;20.70;;;;;;;2.53;91.75;99765.47;5092534;28;20035;-68
2021/12/07 05:01:57;;;;;;;38.80;20.67;;;;;;;2.59;91.18;99765.94;5092304;28;20472;-68
2021/12/07 05:04:27;;;;;;;41.80;21.73;;;;;;;2.52;92.06;99759.34;5092464;28;20067;-68
2021/12/07 05:06:58;;;;;;;37.58;21.10;;;;;;;2.52;92.07;99758.47;5092440;28;20028;-68
2021/12/07 05:12:18;;;;;;;40.72;21.13;;;;;;;2.48;93.33;99757.81;5091997;28;20055;-69
2021/12/07 05:14:42;;;;;;;37.40;21.30;;;;;;;2.47;93.08;99757.91;5091520;28;20478;-69
2021/12/07 05:39:00;;;;;;;40.85;22.15;;;;;;;2.39;92.02;99775.13;5091453;28;20586;-69
2021/12/07 05:41:26;;;;;;;41.85;21.88;;;;;;;2.38;92.22;99789.31;5091561;28;20028;-68
2021/12/07 05:43:51;;;;;;;45.92;23.30;;;;;;;2.35;92.90;99773.63;5091492;28;20027;-69
2021/12/07 05:46:17;;;;;;;43.50;21.58;;;;;;;2.32;93.47;99779.13;5091624;28;20368;-69
2021/12/07 05:48:43;;;;;;;43.40;22.58;;;;;;;2.32;93.15;99771.19;5091471;28;20024;-70
2021/12/07 05:51:09;;;;;;;43.05;21.50;;;;;;;2.34;93.54;99782.53;5091727;28;20062;-69
2021/12/07 05:53:35;;;;;;;47.88;23.52;;;;;;;2.34;93.85;99782.53;5091440;28;20059;-69
2021/12/07 05:56:02;;;;;;;42.03;20.95;;;;;;;2.32;93.93;99778.25;5091273;28;20507;-69
2021/12/07 05:58:28;;;;;;;42.33;22.83;;;;;;;2.31;93.85;99784.50;5091533;28;20103;-69
2021/12/07 06:00:57;;;;;;;45.25;22.85;;;;;;;2.34;93.97;99776.38;5083584;28;20128;-69
2021/12/07 06:03:27;;;;;;;43.67;22.27;;;;;;;2.33;94.38;99782.63;5090265;28;20070;-69
2021/12/07 06:05:53;;;;;;;41.05;22.30;;;;;;;2.43;92.77;99786.38;5073573;28;20028;-68
2021/12/07 06:08:19;;;;;;;39.40;21.67;;;;;;;2.47;92.67;99776.44;5094729;28;20023;-71
2021/12/07 06:10:45;;;;;;;41.88;21.80;;;;;;;2.38;93.09;99783.16;5090146;28;20052;-69
2021/12/07 06:13:11;;;;;;;43.00;22.52;;;;;;;2.39;92.71;99785.72;5092392;28;20032;-69
2021/12/07 06:15:38;;;;;;;38.88;21.42;;;;;;;2.33;93.73;99790.56;5072056;28;20035;-69
2021/12/07 06:18:05;;;;;;;40.28;20.67;;;;;;;2.36;93.53;99777.97;5090590;28;20401;-70
2021/12/07 06:20:41;;;;;;;40.45;20.85;;;;;;;2.29;93.34;99786.41;5074196;28;20374;-70
2021/12/07 06:23:18;;;;;;;40.45;21.13;;;;;;;2.25;93.90;99784.88;5090663;28;20032;-69
2021/12/07 06:25:45;;;;;;;41.67;20.83;;;;;;;2.17;94.68;99780.06;5093669;28;20028;-69
2021/12/07 06:28:11;;;;;;;36.83;20.60;;;;;;;2.25;94.11;99777.81;5073136;28;20464;-69
2021/12/07 06:30:36;;;;;;;43.85;22.95;;;;;;;2.21;94.00;99773.66;5091082;28;20056;-69
2021/12/07 06:33:02;;;;;;;41.75;22.73;;;;;;;2.23;94.61;99784.97;5090888;28;20052;-69
2021/12/07 06:35:27;;;;;;;40.75;21.45;;;;;;;2.19;94.46;99777.31;5091008;28;20047;-69
2021/12/07 06:37:53;;;;;;;39.78;21.55;;;;;;;2.23;94.29;99790.25;5091525;28;20032;-69
2021/12/07 06:40:18;;;;;;;41.92;22.80;;;;;;;2.24;94.25;99785.84;5076643;28;20038;-69
2021/12/07 06:42:44;;;;;;;48.53;23.98;;;;;;;2.23;94.44;99784.97;5076562;28;20493;-69
2021/12/07 06:45:13;;;;;;;42.33;22.58;;;;;;;2.34;92.71;99774.59;5076656;28;20020;-69
2021/12/07 06:47:40;;;;;;;38.40;21.17;;;;;;;2.34;92.57;99782.53;5094690;28;20020;-69
2021/12/07 06:50:08;;;;;;;39.47;22.02;;;;;;;2.32;93.26;99779.13;5094311;28;20028;-67
2021/12/07 06:52:34;;;;;;;39.85;22.60;;;;;;;2.30;94.00;99786.28;5087813;28;20360;-69
2021/12/07 06:55:00;;;;;;;40.22;22.60;;;;;;;2.29;93.66;99778.47;5093978;28;20036;-69
2021/12/07 06:57:26;;;;;;;43.50;21.52;;;;;;;2.30;94.24;99782.81;5093971;28;20036;-69
2021/12/07 06:59:53;;;;;;;42.88;22.85;;;;;;;2.30;94.07;99788.94;5095408;28;20467;-69
2021/12/07 07:02:19;;;;;;;43.78;23.55;;;;;;;2.42;92.42;99784.69;5092399;28;20024;-69
2021/12/07 07:04:44;;;;;;;49.83;25.63;;;;;;;2.36;92.63;99790.38;5094642;28;20492;-69
2021/12/07 07:07:10;;;;;;;42.85;23.38;;;;;;;2.42;92.00;99793.47;5094490;28;20086;-69
2021/12/07 07:09:36;;;;;;;42.75;22.35;;;;;;;2.40;92.28;99797.16;5094286;28;20039;-69
2021/12/07 07:12:02;;;;;;;40.38;21.67;;;;;;;2.30;92.38;99790.75;5093711;28;20088;-69
2021/12/07 07:14:27;;;;;;;44.95;22.95;;;;;;;2.31;93.29;99800.38;5094145;28;20031;-69
2021/12/07 07:16:53;;;;;;;50.90;25.10;;;;;;;2.33;93.78;99807.25;5094375;28;20483;-69
2021/12/07 07:19:18;;;;;;;50.30;24.67;;;;;;;2.52;92.62;99822.00;5094218;28;20165;-69
2021/12/07 07:21:44;;;;;;;48.83;23.92;;;;;;;2.42;93.13;99820.88;5093923;28;20036;-69
2021/12/07 07:24:09;;;;;;;43.58;22.63;;;;;;;2.42;93.23;99827.03;5094046;28;20032;-69
2021/12/07 07:26:35;;;;;;;42.72;22.23;;;;;;;2.39;93.56;99827.22;5094060;28;20034;-69
2021/12/07 07:29:00;;;;;;;43.03;23.52;;;;;;;2.39;93.68;99828.06;5075780;28;20024;-69
2021/12/07 07:31:26;;;;;;;45.60;23.65;;;;;;;2.46;93.42;99839.13;5093872;28;20455;-69
2021/12/07 07:33:53;;;;;;;43.90;24.17;;;;;;;2.47;93.36;99851.41;5075815;28;20073;-68
2021/12/07 07:36:19;;;;;;;40.67;22.33;;;;;;;2.51;93.79;99852.06;5093859;28;20027;-69
2021/12/07 07:38:44;;;;;;;40.72;22.73;;;;;;;2.46;93.25;99828.53;5093538;28;20047;-69
2021/12/07 07:41:10;;;;;;;45.75;22.83;;;;;;;2.56;93.04;99840.25;5093649;28;20020;-68
2021/12/07 07:43:35;;;;;;;43.88;23.23;;;;;;;2.58;92.97;99840.16;5093781;28;20035;-69
2021/12/07 07:46:01;;;;;;;45.60;23.35;;;;;;;2.55;92.51;99835.03;5093564;28;20040;-69
2021/12/07 07:48:27;;;;;;;50.05;25.13;;;;;;;2.59;92.95;99839.19;5093387;28;20016;-69
2021/12/07 07:50:53;;;;;;;50.88;26.38;;;;;;;2.64;92.69;99847.72;5093576;28;20119;-69
2021/12/07 07:53:20;;;;;;;42.35;24.30;;;;;;;2.66;92.66;99845.78;5093660;28;20028;-69
2021/12/07 07:55:45;;;;;;;41.92;22.98;;;;;;;2.68;92.76;99844.78;5075256;28;20032;-69
2021/12/07 07:58:12;;;;;;;47.72;23.50;;;;;;;2.70;92.09;99840.22;5075619;28;20400;-69
2021/12/07 08:00:40;;;;;;;45.15;24.13;;;;;;;2.71;92.27;99838.41;5091049;28;20031;-69
2021/12/07 08:03:06;;;;;;;42.15;23.35;;;;;;;2.73;91.84;99831.22;5093193;28;20066;-69
2021/12/07 08:05:32;;;;;;;43.83;22.30;;;;;;;2.66;91.85;99819.31;5093290;28;20647;-69
2021/12/07 08:07:57;;;;;;;39.75;22.75;;;;;;;2.72;92.14;99825.09;5093006;28;20107;-69
2021/12/07 08:10:28;;;;;;;48.97;24.55;;;;;;;2.75;91.84;99832.84;5075091;28;20462;-69
2021/12/07 08:12:59;;;;;;;47.22;23.50;;;;;;;2.75;92.14;99826.69;5093156;28;20032;-69
2021/12/07 08:15:27;;;;;;;45.75;23.45;;;;;;;2.74;92.24;99827.63;5093222;28;20077;-69
2021/12/07 08:17:53;;;;;;;43.05;21.95;;;;;;;2.75;92.16;99818.75;5093310;28;20724;-70
2021/12/07 08:20:18;;;;;;;46.75;24.17;;;;;;;2.80;92.10;99827.25;5090546;28;20039;-69
2021/12/07 08:22:44;;;;;;;46.65;24.15;;;;;;;2.73;92.02;99813.53;5092748;28;20036;-69
2021/12/07 08:25:10;;;;;;;45.55;23.48;;;;;;;2.81;92.25;99819.22;5092791;28;20085;-69
2021/12/07 08:27:35;;;;;;;58.28;27.67;;;;;;;2.89;91.72;99810.75;5092617;28;20056;-69
2021/12/07 08:30:07;;;;;;;59.33;28.42;;;;;;;2.91;90.98;99808.88;5092943;28;20054;-69
2021/12/07 08:32:32;;;;;;;47.65;24.05;;;;;;;2.99;90.73;99811.84;5090587;28;20084;-69
2021/12/07 08:34:58;;;;;;;44.35;24.70;;;;;;;3.02;89.98;99811.66;5092749;28;20016;-70
2021/12/07 08:37:23;;;;;;;44.85;22.42;;;;;;;2.97;89.81;99797.88;5092835;28;20460;-69
2021/12/07 08:39:49;;;;;;;45.30;22.60;;;;;;;3.01;90.03;99810.81;5092619;28;20084;-69
2021/12/07 08:42:15;;;;;;;42.63;22.65;;;;;;;2.97;90.69;99804.00;5074409;28;20031;-70
2021/12/07 08:44:41;;;;;;;41.17;22.42;;;;;;;2.93;90.63;99786.63;5092627;28;20039;-70
2021/12/07 08:47:07;;;;;;;48.28;24.52;;;;;;;3.06;91.11;99802.59;5092460;28;20051;-70
2021/12/07 08:49:34;;;;;;;42.47;23.00;;;;;;;3.11;89.79;99806.63;5092661;28;20070;-69
2021/12/07 08:51:59;;;;;;;49.17;24.20;;;;;;;3.12;89.62;99812.75;5092374;28;20074;-70
2021/12/07 08:59:52;;;;;;;49.95;25.40;;;;;;;3.27;88.09;99817.06;5090734;28;20063;-69
2021/12/07 09:02:20;;;;;;;62.80;27.88;;;;;;;3.25;88.29;99803.03;5091887;28;20034;-70
2021/12/07 09:04:46;;;;;;;58.03;27.05;;;;;;;3.34;88.34;99816.56;5092197;28;20035;-70
2021/12/07 09:07:13;;;;;;;58.83;27.17;;;;;;;3.26;88.54;99816.19;5092243;28;20030;-70
2021/12/07 09:09:39;;;;;;;57.38;26.48;;;;;;;3.25;89.02;99808.34;5087028;28;20032;-69
2021/12/07 09:12:06;;;;;;;54.60;26.25;;;;;;;3.29;88.44;99808.03;5089971;28;20039;-70
2021/12/07 09:14:34;;;;;;;54.90;26.58;;;;;;;3.28;88.11;99789.59;5091838;28;20031;-70
2021/12/07 09:17:00;;;;;;;57.85;26.70;;;;;;;3.28;88.95;99800.19;5092150;28;20052;-70
2021/12/07 09:19:26;;;;;;;56.20;26.80;;;;;;;3.45;87.60;99805.25;5092017;28;20023;-70
2021/12/07 09:21:52;;;;;;;61.55;26.88;;;;;;;3.38;87.13;99790.66;5091852;28;20080;-70
2021/12/07 09:24:18;;;;;;;52.90;25.58;;;;;;;3.38;87.37;99802.13;5091852;28;20035;-70
2021/12/07 09:26:43;;;;;;;57.42;27.30;;;;;;;3.35;88.43;99794.38;5091956;28;20032;-70
2021/12/07 09:29:09;;;;;;;48.15;24.45;;;;;;;3.37;88.98;99789.00;5091601;28;20032;-70
2021/12/07 09:31:35;;;;;;;54.47;25.25;;;;;;;3.49;88.51;99785.53;5091602;28;20475;-70
2021/12/07 09:34:02;;;;;;;52.47;25.73;;;;;;;3.56;88.22;99776.19;5091637;28;20032;-70
2021/12/07 09:36:27;;;;;;;49.63;25.33;;;;;;;3.64;87.31;99772.06;5091789;28;20028;-69
2021/12/07 09:38:53;;;;;;;52.70;23.85;;;;;;;3.67;86.71;99768.34;5091603;28;20506;-69
2021/12/07 09:41:18;;;;;;;50.78;24.30;;;;;;;3.64;87.60;99771.25;5091639;28;20106;-69
2021/12/07 09:43:46;;;;;;;44.88;23.90;;;;;;;3.60;87.90;99754.69;5091513;28;20554;-70
2021/12/07 09:46:13;;;;;;;49.85;24.17;;;;;;;3.75;87.67;99761.59;5091441;28;20499;-70
2021/12/07 09:48:40;;;;;;;46.15;24.48;;;;;;;3.88;86.00;99762.44;5073053;28;20111;-70
2021/12/07 09:51:09;;;;;;;44.88;24.42;;;;;;;3.93;85.15;99764.75;5091874;28;20055;-70
2021/12/07 09:53:36;;;;;;;44.45;23.63;;;;;;;4.00;83.83;99758.91;5089062;28;21384;-70
2021/12/07 09:56:04;;;;;;;45.60;24.58;;;;;;;4.02;84.40;99761.47;5091652;28;20038;-70
2021/12/07 09:58:30;;;;;;;43.08;24.33;;;;;;;4.00;84.42;99758.09;5088904;28;20036;-70
2021/12/07 10:00:56;;;;;;;42.38;22.13;;;;;;;4.03;83.53;99758.69;5091512;28;20408;-70
2021/12/07 10:03:23;;;;;;;44.13;24.27;;;;;;;4.06;83.80;99758.47;5073352;28;20030;-70
2021/12/07 10:05:49;;;;;;;45.92;24.80;;;;;;;3.97;84.63;99759.13;5091718;28;20544;-70
2021/12/07 10:08:14;;;;;;;46.70;25.15;;;;;;;3.98;85.18;99752.03;5091278;28;20099;-70
2021/12/07 10:10:44;;;;;;;46.15;24.30;;;;;;;4.13;83.82;99751.78;5073137;28;20126;-70
2021/12/07 10:13:12;;;;;;;44.42;24.45;;;;;;;4.12;83.78;99735.97;5090090;28;20123;-70
2021/12/07 10:15:39;;;;;;;43.13;23.65;;;;;;;4.25;82.28;99732.34;5095546;28;20027;-70
2021/12/07 10:18:11;;;;;;;47.65;24.55;;;;;;;4.18;82.78;99739.06;5095355;28;20028;-70
2021/12/07 10:20:48;;;;;;;48.03;25.83;;;;;;;4.14;84.20;99726.13;5077471;28;20114;-70
2021/12/07 10:23:16;;;;;;;43.65;23.27;;;;;;;4.13;84.43;99722.59;5093214;28;20123;-70
2021/12/07 10:25:49;;;;;;;49.28;24.58;;;;;;;4.12;85.02;99723.56;5095342;28;20498;-70
2021/12/07 10:28:43;;;;;;;43.40;24.23;;;;;;;4.16;85.36;99716.25;5093341;28;20024;-70
2021/12/07 10:31:08;;;;;;;42.92;23.90;;;;;;;4.20;84.53;99718.53;5095591;28;20157;-70
2021/12/07 10:33:41;;;;;;;42.45;23.58;;;;;;;4.28;83.05;99718.00;5095185;28;20106;-70
2021/12/07 10:36:10;;;;;;;44.88;24.15;;;;;;;4.30;83.04;99716.09;5095279;28;20028;-71
2021/12/07 10:38:37;;;;;;;47.25;24.35;;;;;;;4.17;83.99;99697.56;5095282;28;20475;-70
2021/12/07 10:41:07;;;;;;;51.42;25.10;;;;;;;4.28;84.38;99712.69;5076925;28;20092;-71
2021/12/07 10:44:00;;;;;;;48.22;25.80;;;;;;;4.31;84.71;99713.34;5093079;28;20095;-70
2021/12/07 10:46:41;;;;;;;46.17;26.05;;;;;;;4.33;84.75;99705.25;5054313;28;20509;-71
2021/12/07 10:49:07;;;;;;;41.10;23.08;;;;;;;4.38;84.47;99692.50;5092285;28;20034;-71
2021/12/07 10:51:33;;;;;;;46.58;24.42;;;;;;;4.41;84.45;99695.78;5094713;28;20023;-70
2021/12/07 10:53:59;;;;;;;39.55;23.60;;;;;;;4.43;83.98;99690.38;5094976;28;20507;-71
2021/12/07 10:56:32;;;;;;;53.38;25.40;;;;;;;4.72;81.35;99687.28;5094867;28;20129;-70
2021/12/07 10:59:05;;;;;;;41.50;23.00;;;;;;;4.68;80.86;99672.50;5094817;28;20418;-70
2021/12/07 11:01:43;;;;;;;45.45;24.63;;;;;;;4.62;82.14;99678.25;5094869;28;20043;-70
2021/12/07 11:04:33;;;;;;;44.45;24.80;;;;;;;4.55;83.07;99676.19;5092341;28;20387;-71
2021/12/07 11:07:12;;;;;;;44.38;22.92;;;;;;;4.51;82.89;99667.59;5092689;28;20024;-70
2021/12/07 11:09:46;;;;;;;44.85;24.65;;;;;;;4.65;82.60;99678.03;5094423;28;20427;-70
2021/12/07 11:12:18;;;;;;;48.05;26.20;;;;;;;4.70;82.60;99675.06;5094135;28;20028;-70
2021/12/07 11:14:53;;;;;;;47.50;25.52;;;;;;;4.69;83.08;99668.06;5094269;28;20040;-71
2021/12/07 11:17:25;;;;;;;46.05;24.05;;;;;;;4.82;82.37;99675.94;5094250;28;20077;-70
2021/12/07 11:19:52;;;;;;;45.22;25.10;;;;;;;4.81;82.06;99676.91;5094266;28;20024;-70
2021/12/07 11:22:23;;;;;;;46.42;25.10;;;;;;;4.84;81.72;99666.06;5076102;28;20020;-71
2021/12/07 11:24:51;;;;;;;49.15;25.65;;;;;;;4.85;81.83;99659.78;5093597;28;20035;-71
2021/12/07 11:30:29;;;;;;;45.38;24.90;;;;;;;4.88;83.02;99655.09;5091965;28;20047;-70
2021/12/07 11:32:57;;;;;;;43.83;24.33;;;;;;;4.90;83.25;99652.31;5089549;28;20044;-71
2021/12/07 11:35:26;;;;;;;45.15;24.45;;;;;;;4.91;82.52;99654.88;5073664;28;20365;-71
2021/12/07 11:37:55;;;;;;;46.58;24.98;;;;;;;4.93;82.68;99652.09;5091783;28;20054;-71
2021/12/07 11:40:29;;;;;;;44.47;24.27;;;;;;;4.98;82.75;99649.94;5075829;28;20028;-71
2021/12/07 11:42:55;;;;;;;43.15;24.38;;;;;;;5.03;83.11;99656.56;5094010;28;20036;-71
2021/12/07 11:45:27;;;;;;;44.50;23.42;;;;;;;4.99;82.67;99636.53;5093716;28;20112;-71
2021/12/07 11:47:57;;;;;;;45.35;23.58;;;;;;;5.24;81.77;99646.13;5093779;28;20038;-71
2021/12/07 11:50:34;;;;;;;42.38;23.27;;;;;;;5.33;82.38;99650.75;5091258;28;20518;-71
2021/12/07 11:53:02;;;;;;;48.50;25.48;;;;;;;5.58;79.42;99651.38;5092202;28;20058;-70
2021/12/07 11:55:29;;;;;;;42.58;23.48;;;;;;;5.48;80.16;99636.28;5093320;28;20051;-71
2021/12/07 11:57:55;;;;;;;42.90;23.52;;;;;;;5.48;80.09;99645.09;5093653;28;20028;-71
2021/12/07 12:00:34;;;;;;;41.55;24.10;;;;;;;5.53;80.08;99653.56;5093537;28;20420;-71
2021/12/07 12:03:00;;;;;;;43.70;24.45;;;;;;;5.58;78.67;99651.38;5075569;28;20055;-70
2021/12/07 12:05:26;;;;;;;42.03;22.98;;;;;;;5.69;78.85;99648.75;5093563;28;20063;-71
2021/12/07 12:07:51;;;;;;;44.22;25.48;;;;;;;5.72;78.57;99656.47;5093015;28;20433;-71
2021/12/07 12:10:18;;;;;;;40.67;23.10;;;;;;;5.88;77.02;99656.13;5093267;28;20047;-70
2021/12/07 12:13:16;;;;;;;43.85;24.63;;;;;;;5.71;77.95;99646.78;5075047;28;20064;-71
2021/12/07 12:16:08;;;;;;;40.78;22.40;;;;;;;5.87;76.60;99649.13;5093321;28;20476;-70
2021/12/07 12:18:48;;;;;;;42.00;22.85;;;;;;;5.96;76.03;99657.22;5093372;28;20419;-70
2021/12/07 12:21:26;;;;;;;40.45;22.40;;;;;;;6.08;75.29;99666.03;5092852;28;20412;-71
2021/12/07 12:24:14;;;;;;;46.60;23.00;;;;;;;5.99;74.92;99664.97;5091003;28;20365;-70
2021/12/07 12:26:39;;;;;;;43.25;23.75;;;;;;;5.92;76.10;99661.09;5090998;28;20040;-70
2021/12/07 12:29:20;;;;;;;42.97;23.52;;;;;;;5.91;76.22;99656.75;5092975;28;20036;-70
2021/12/07 12:31:45;;;;;;;45.17;25.20;;;;;;;5.91;76.59;99659.41;5091224;28;20073;-70
2021/12/07 12:34:21;;;;;;;42.85;23.67;;;;;;;5.86;76.26;99652.75;5092734;28;20027;-70
2021/12/07 12:36:57;;;;;;;40.53;23.52;;;;;;;5.99;75.78;99672.09;5090405;28;20381;-69
2021/12/07 12:39:48;;;;;;;39.15;22.17;;;;;;;6.04;74.40;99661.94;5092808;28;20020;-69
2021/12/07 12:42:22;;;;;;;42.03;23.30;;;;;;;6.10;73.83;99669.44;5071383;28;20043;-70
2021/12/07 12:44:48;;;;;;;42.45;22.83;;;;;;;6.09;73.25;99665.06;5090031;28;20063;-70
2021/12/07 12:47:19;;;;;;;43.20;24.20;;;;;;;6.17;73.09;99671.50;5092528;28;20176;-71
2021/12/07 12:49:46;;;;;;;41.30;23.13;;;;;;;6.17;73.20;99674.16;5092448;28;20028;-70
2021/12/07 12:52:12;;;;;;;39.70;22.77;;;;;;;6.13;72.56;99671.88;5092480;28;20028;-71
2021/12/07 12:54:46;;;;;;;45.63;23.63;;;;;;;6.20;72.51;99668.59;5092561;28;20046;-70
2021/12/07 12:57:15;;;;;;;39.67;21.75;;;;;;;6.11;73.81;99663.13;5092411;28;20032;-70
2021/12/07 12:59:44;;;;;;;43.17;23.67;;;;;;;6.10;72.77;99661.47;5092239;28;20031;-70
2021/12/07 13:02:10;;;;;;;39.53;21.48;;;;;;;6.10;73.36;99664.94;5074304;28;20020;-71
2021/12/07 13:04:36;;;;;;;46.70;23.55;;;;;;;6.06;74.38;99670.66;5092344;28;20035;-71
2021/12/07 13:09:45;;;;;;;43.78;23.50;;;;;;;6.16;73.15;99667.13;5088013;28;20059;-70
2021/12/07 13:12:24;;;;;;;43.08;23.30;;;;;;;6.22;73.12;99679.09;5074044;28;20489;-71